Comanche, Texas
Current Conditions -  °F | °C
As of 11:15 AM on Friday 31 Oct 2014 (Local Time) from KMKN Reporting Station
Clear Clear  
Wind Chill: 61°   Ceiling: Unl
Heat Index: 61°   Visibility: 10mi
Dew Point: 44°   Wind: 13mph
Humidity: 53%   Direction: 360°N
Pressure: 30.38"   Gusts: 17mph
Location:  31.9°N, 98.6°W
Report Text: KMKN 311615Z AUTO 36011G15KT 10SM CLR 16/06 A3038 RMK AO2 T01600064
Loading
Personal Weather Stations






























Interactive Weather Map
Tropical Storm Tracking
New forecast layout! Learn more

10-Day Weather Forecast

Advertisements
Track Severe Weather on mobile